Time;durP1;ratioP1;P1;durP2;ratioP2;P2;SDS_P1;SDS_P2;PMS_P1;PMS_P2;Temp;Humidity;BMP_temperature;BMP_pressure;BME280_temperature;BME280_humidity;BME280_pressure;Samples;Min_cycle;Max_cycle;Signal;HPM_P1;HPM_P2
2021/12/24 00:01:52;;;;;;;;;;;;;;;7.77;76.97;98434.22;5050715;28;19921;-61
2021/12/24 00:04:19;;;;;;;;;;;;;;;7.80;77.10;98446.25;5050519;28;19925;-60
2021/12/24 00:06:46;;;;;;;;;;;;;;;7.81;77.37;98438.31;5050663;28;19925;-61
2021/12/24 00:09:20;;;;;;;;;;;;;;;7.83;77.39;98430.34;5050498;28;19920;-61
2021/12/24 00:11:48;;;;;;;;;;;;;;;7.86;77.18;98429.31;5050579;28;19951;-62
2021/12/24 00:14:15;;;;;;;;;;;;;;;7.86;77.23;98430.16;5050566;28;19968;-61
2021/12/24 00:16:50;;;;;;;;;;;;;;;7.86;77.27;98437.16;5050778;28;19924;-60
2021/12/24 00:35:36;;;;;;;;;;;;;;;7.99;77.54;98437.19;5054606;28;19925;-61
2021/12/24 00:38:03;;;;;;;;;;;;;;;8.00;77.46;98439.69;5054444;28;19986;-62
2021/12/24 00:40:35;;;;;;;;;;;;;;;8.02;77.52;98416.00;5052929;28;19924;-61
2021/12/24 00:43:01;;;;;;;;;;;;;;;8.05;77.42;98431.53;5054159;28;19974;-61
2021/12/24 00:45:29;;;;;;;;;;;;;;;8.05;77.66;98413.19;5053988;28;19921;-61
2021/12/24 00:47:57;;;;;;;;;;;;;;;8.10;77.54;98418.94;5054323;28;20386;-61
2021/12/24 00:50:25;;;;;;;;;;;;;;;8.13;77.63;98423.13;5054010;28;19932;-62
2021/12/24 00:55:43;;;;;;;;;;;;;;;8.16;77.66;98421.16;5043480;28;20496;-61
2021/12/24 00:58:09;;;;;;;;;;;;;;;8.22;77.72;98422.50;5054176;28;20388;-63
2021/12/24 01:00:38;;;;;;;;;;;;;;;8.25;77.63;98419.66;5054067;28;20301;-61
2021/12/24 01:03:07;;;;;;;;;;;;;;;8.27;77.47;98420.41;5054008;28;20448;-61
2021/12/24 01:05:34;;;;;;;;;;;;;;;8.31;77.68;98413.16;5053960;28;19928;-63
2021/12/24 01:08:01;;;;;;;;;;;;;;;8.34;77.71;98405.09;5054026;28;19920;-60
2021/12/24 01:10:34;;;;;;;;;;;;;;;8.36;77.78;98400.56;5053668;28;19951;-62
2021/12/24 01:13:00;;;;;;;;;;;;;;;8.40;77.60;98401.19;5053748;28;19932;-61
2021/12/24 01:15:28;;;;;;;;;;;;;;;8.43;77.58;98406.22;5052699;28;20043;-60
2021/12/24 01:18:05;;;;;;;;;;;;;;;8.46;77.38;98398.97;5052700;28;20002;-60
2021/12/24 01:25:42;;;;;;;;;;;;;;;8.53;77.63;98402.06;5053607;28;19924;-61
2021/12/24 01:44:29;;;;;;;;;;;;;;;8.72;77.69;98396.31;5053086;28;20390;-61
2021/12/24 01:46:57;;;;;;;;;;;;;;;8.75;77.69;98397.06;5052007;28;19943;-61
2021/12/24 01:49:23;;;;;;;;;;;;;;;8.79;77.67;98386.22;5052849;28;20407;-60
2021/12/24 01:51:50;;;;;;;;;;;;;;;8.79;77.76;98383.59;5053101;28;19925;-61
2021/12/24 01:54:17;;;;;;;;;;;;;;;8.83;77.64;98379.78;5053081;28;19924;-61
2021/12/24 01:56:45;;;;;;;;;;;;;;;8.87;77.82;98380.44;5053019;28;19925;-61
2021/12/24 01:59:11;;;;;;;;;;;;;;;8.89;77.93;98380.31;5052740;28;20373;-61
2021/12/24 02:01:38;;;;;;;;;;;;;;;8.92;77.74;98370.44;5052984;28;19925;-61
2021/12/24 02:04:05;;;;;;;;;;;;;;;8.95;77.67;98375.47;5052811;28;20026;-60
2021/12/24 02:06:33;;;;;;;;;;;;;;;8.99;77.58;98376.06;5052652;28;19920;-61
2021/12/24 02:08:59;;;;;;;;;;;;;;;8.98;77.43;98364.72;5052650;28;19924;-61
2021/12/24 02:11:26;;;;;;;;;;;;;;;9.01;77.74;98368.09;5052798;28;19925;-61
2021/12/24 02:13:53;;;;;;;;;;;;;;;9.04;77.76;98373.13;5052622;28;20285;-60
2021/12/24 02:29:58;;;;;;;;;;;;;;;9.18;78.00;98340.59;5052208;28;19974;-61
2021/12/24 02:32:25;;;;;;;;;;;;;;;9.19;77.99;98340.47;5052510;28;19986;-61
2021/12/24 02:34:51;;;;;;;;;;;;;;;9.21;77.86;98333.34;5052169;28;19921;-64
2021/12/24 02:37:18;;;;;;;;;;;;;;;9.24;78.05;98340.97;5052187;28;19924;-61
2021/12/24 02:39:45;;;;;;;;;;;;;;;9.27;77.81;98333.84;5051875;28;20357;-61
2021/12/24 02:42:13;;;;;;;;;;;;;;;9.29;77.87;98334.53;5051895;28;19921;-62
2021/12/24 02:44:40;;;;;;;;;;;;;;;9.30;77.95;98333.59;5052171;28;20391;-61
2021/12/24 02:47:14;;;;;;;;;;;;;;;9.32;77.94;98327.28;5052152;28;19978;-60
2021/12/24 02:54:59;;;;;;;;;;;;;;;9.37;78.11;98322.53;5052082;28;19990;-62
2021/12/24 02:57:28;;;;;;;;;;;;;;;9.40;77.98;98321.44;5051904;28;19924;-62
2021/12/24 03:00:06;;;;;;;;;;;;;;;9.42;77.80;98323.97;5051966;28;19921;-61
2021/12/24 03:02:38;;;;;;;;;;;;;;;9.43;77.96;98326.47;5051809;28;19925;-60
2021/12/24 03:05:05;;;;;;;;;;;;;;;9.45;78.06;98314.06;5051731;28;19987;-61
2021/12/24 03:07:31;;;;;;;;;;;;;;;9.49;77.98;98317.28;5051626;28;19978;-61
2021/12/24 03:09:59;;;;;;;;;;;;;;;9.51;77.83;98313.59;5051547;28;19975;-60
2021/12/24 03:12:26;;;;;;;;;;;;;;;9.52;77.83;98319.69;5051725;28;20384;-60
2021/12/24 03:14:52;;;;;;;;;;;;;;;9.54;77.99;98315.16;5051657;28;19928;-61
2021/12/24 03:17:23;;;;;;;;;;;;;;;9.58;77.89;98313.13;5051492;28;19955;-62
2021/12/24 03:19:51;;;;;;;;;;;;;;;9.60;77.92;98304.16;5051227;28;19925;-61
2021/12/24 03:25:03;;;;;;;;;;;;;;;9.64;77.79;98295.09;5051423;28;20509;-62
2021/12/24 03:27:30;;;;;;;;;;;;;;;9.66;77.85;98295.00;5051187;28;19978;-62
2021/12/24 03:29:57;;;;;;;;;;;;;;;9.69;77.64;98317.56;5050902;28;19921;-63
2021/12/24 03:32:24;;;;;;;;;;;;;;;9.70;77.57;98290.31;5051695;28;19921;-60
2021/12/24 03:34:51;;;;;;;;;;;;;;;9.71;77.72;98292.84;5051231;28;19981;-62
2021/12/24 03:37:18;;;;;;;;;;;;;;;9.73;77.79;98297.97;5049870;28;19966;-60
2021/12/24 03:39:44;;;;;;;;;;;;;;;9.76;77.82;98297.75;5050936;28;19921;-61
2021/12/24 03:42:11;;;;;;;;;;;;;;;9.79;77.81;98302.75;5050794;28;19970;-64
2021/12/24 03:44:43;;;;;;;;;;;;;;;9.81;77.80;98302.63;5050863;28;20369;-60
2021/12/24 03:47:13;;;;;;;;;;;;;;;9.82;77.81;98305.16;5049860;28;20034;-61
2021/12/24 03:54:56;;;;;;;;;;;;;;;9.90;77.91;98302.75;5050829;28;19974;-60
2021/12/24 03:57:30;;;;;;;;;;;;;;;9.92;77.54;98302.66;5050710;28;19921;-62
2021/12/24 03:59:58;;;;;;;;;;;;;;;9.95;77.94;98293.69;5048618;28;19932;-63
2021/12/24 04:02:25;;;;;;;;;;;;;;;9.96;77.78;98290.09;5050656;28;19925;-63
2021/12/24 04:04:52;;;;;;;;;;;;;;;9.96;77.67;98295.34;5050670;28;19963;-61
2021/12/24 04:07:18;;;;;;;;;;;;;;;9.98;77.90;98289.00;5050650;28;19997;-61
2021/12/24 04:09:57;;;;;;;;;;;;;;;10.00;77.76;98292.38;5050390;28;20630;-62
2021/12/24 04:12:23;;;;;;;;;;;;;;;10.02;77.85;98287.81;5050707;28;19966;-62
2021/12/24 04:14:51;;;;;;;;;;;;;;;10.03;77.77;98297.38;5050695;28;20338;-60
2021/12/24 04:17:17;;;;;;;;;;;;;;;10.04;77.78;98304.31;5050676;28;20331;-61
2021/12/24 04:25:14;;;;;;;;;;;;;;;10.10;77.74;98308.22;5050423;28;20053;-62
2021/12/24 04:27:41;;;;;;;;;;;;;;;10.12;77.72;98306.34;5050399;28;19920;-61
2021/12/24 04:30:30;;;;;;;;;;;;;;;10.13;77.76;98308.00;5050324;28;20355;-61
2021/12/24 04:33:05;;;;;;;;;;;;;;;10.17;77.64;98306.00;5050411;28;19925;-61
2021/12/24 04:35:40;;;;;;;;;;;;;;;10.17;77.65;98293.66;5050421;28;19967;-61
2021/12/24 04:38:32;;;;;;;;;;;;;;;10.19;77.62;98311.09;5050365;28;19929;-61
2021/12/24 04:52:11;;;;;;;;;;;;;;;10.28;77.94;98305.13;5050378;28;20285;-61
2021/12/24 05:02:58;;;;;;;;;;;;;;;10.37;77.80;98333.34;5050136;28;20347;-61
2021/12/24 05:05:36;;;;;;;;;;;;;;;10.40;77.73;98325.19;5048834;28;19925;-63
2021/12/24 05:08:16;;;;;;;;;;;;;;;10.42;77.71;98320.66;5050102;28;19928;-61
2021/12/24 05:10:42;;;;;;;;;;;;;;;10.45;77.63;98330.13;5050349;28;19974;-61
2021/12/24 05:13:10;;;;;;;;;;;;;;;10.47;77.78;98320.28;5053936;28;19924;-61
2021/12/24 05:15:40;;;;;;;;;;;;;;;10.50;77.89;98321.88;5052636;28;19920;-63
2021/12/24 05:23:20;;;;;;;;;;;;;;;10.55;77.92;98332.84;5053741;28;19928;-61
2021/12/24 05:25:47;;;;;;;;;;;;;;;10.56;77.71;98326.63;5053585;28;19924;-60
2021/12/24 05:28:14;;;;;;;;;;;;;;;10.60;77.79;98332.47;5053490;28;19924;-61
2021/12/24 05:30:41;;;;;;;;;;;;;;;10.60;77.79;98328.06;5051987;28;20450;-60
2021/12/24 05:33:12;;;;;;;;;;;;;;;10.63;77.71;98333.09;5053360;28;19920;-61
2021/12/24 05:35:38;;;;;;;;;;;;;;;10.65;77.72;98323.25;5053583;28;19925;-61
2021/12/24 05:38:05;;;;;;;;;;;;;;;10.67;77.74;98331.03;5053664;28;19924;-62
2021/12/24 05:40:32;;;;;;;;;;;;;;;10.70;77.74;98320.25;5052949;28;19921;-61
2021/12/24 05:42:58;;;;;;;;;;;;;;;10.71;77.52;98326.34;5051970;28;19925;-61
2021/12/24 05:45:25;;;;;;;;;;;;;;;10.72;77.68;98326.22;5053030;28;19974;-61
2021/12/24 05:47:52;;;;;;;;;;;;;;;10.73;77.61;98317.38;5053217;28;19972;-61
2021/12/24 05:50:18;;;;;;;;;;;;;;;10.76;77.74;98322.38;5052965;28;19933;-61
2021/12/24 05:52:45;;;;;;;;;;;;;;;10.77;77.64;98316.16;5051807;28;19970;-61
2021/12/24 05:55:11;;;;;;;;;;;;;;;10.80;77.63;98320.34;5053111;28;19932;-61
2021/12/24 05:57:38;;;;;;;;;;;;;;;10.80;77.63;98315.91;5053286;28;19955;-62
2021/12/24 06:00:05;;;;;;;;;;;;;;;10.82;77.55;98318.44;5052675;28;19928;-62
2021/12/24 06:02:33;;;;;;;;;;;;;;;10.84;77.62;98323.56;5052845;28;19924;-61
2021/12/24 06:04:59;;;;;;;;;;;;;;;10.85;77.55;98317.34;5052673;28;20376;-61
2021/12/24 06:07:26;;;;;;;;;;;;;;;10.85;77.27;98318.19;5052527;28;20327;-63
2021/12/24 06:09:52;;;;;;;;;;;;;;;10.84;77.39;98321.75;5052664;28;19925;-61
2021/12/24 06:12:19;;;;;;;;;;;;;;;10.87;77.46;98325.97;5052738;28;19982;-61
2021/12/24 06:14:52;;;;;;;;;;;;;;;10.88;77.31;98330.25;5052914;28;20438;-60
2021/12/24 06:17:19;;;;;;;;;;;;;;;10.89;77.45;98330.13;5051453;28;19935;-61
2021/12/24 06:19:46;;;;;;;;;;;;;;;10.89;77.32;98318.75;5052333;28;19924;-60
2021/12/24 06:22:12;;;;;;;;;;;;;;;10.91;77.23;98332.63;5052134;28;19970;-63
2021/12/24 06:24:39;;;;;;;;;;;;;;;10.91;77.14;98337.88;5052315;28;19978;-62
2021/12/24 06:27:05;;;;;;;;;;;;;;;10.91;77.43;98344.00;5052362;28;20380;-62
2021/12/24 06:29:32;;;;;;;;;;;;;;;10.92;77.18;98336.94;5052452;28;19921;-60
2021/12/24 06:31:58;;;;;;;;;;;;;;;10.92;77.44;98329.06;5052429;28;19928;-62
2021/12/24 06:34:30;;;;;;;;;;;;;;;10.93;77.18;98342.09;5052408;28;19993;-61
2021/12/24 06:36:57;;;;;;;;;;;;;;;10.94;77.29;98340.28;5052378;28;19921;-63
2021/12/24 06:39:24;;;;;;;;;;;;;;;10.95;77.52;98349.84;5051916;28;19929;-61
2021/12/24 06:41:50;;;;;;;;;;;;;;;10.95;77.28;98347.22;5050951;28;20067;-62
2021/12/24 06:44:17;;;;;;;;;;;;;;;10.96;77.23;98348.91;5052226;28;19966;-61
2021/12/24 06:46:43;;;;;;;;;;;;;;;10.97;77.09;98342.66;5052213;28;19921;-61
2021/12/24 06:49:10;;;;;;;;;;;;;;;10.98;77.38;98346.97;5051719;28;20381;-63
2021/12/24 06:51:37;;;;;;;;;;;;;;;10.98;77.25;98346.97;5050790;28;19927;-62
2021/12/24 06:54:04;;;;;;;;;;;;;;;10.99;77.14;98356.53;5067144;28;19920;-61
2021/12/24 06:56:31;;;;;;;;;;;;;;;10.99;77.14;98345.19;5051946;28;20388;-60
2021/12/24 06:58:58;;;;;;;;;;;;;;;10.98;76.95;98339.06;5051853;28;20377;-61
2021/12/24 07:01:24;;;;;;;;;;;;;;;10.99;77.12;98348.63;5051691;28;19925;-60
2021/12/24 07:03:51;;;;;;;;;;;;;;;10.99;77.16;98346.00;5051892;28;19924;-63
2021/12/24 07:06:18;;;;;;;;;;;;;;;10.99;77.10;98346.00;5051642;28;19928;-61
2021/12/24 07:08:44;;;;;;;;;;;;;;;10.99;76.98;98346.00;5051679;28;19974;-60
2021/12/24 07:11:10;;;;;;;;;;;;;;;10.99;77.00;98343.38;5050307;28;20284;-61
2021/12/24 07:13:37;;;;;;;;;;;;;;;10.99;76.76;98353.91;5051824;28;19924;-62
2021/12/24 07:16:03;;;;;;;;;;;;;;;10.99;76.93;98346.00;5051528;28;20350;-62
2021/12/24 07:18:30;;;;;;;;;;;;;;;10.99;77.00;98353.06;5051602;28;19990;-62
2021/12/24 07:20:57;;;;;;;;;;;;;;;10.98;76.91;98344.34;5051215;28;19964;-61
2021/12/24 07:23:23;;;;;;;;;;;;;;;10.99;76.88;98351.25;5051410;28;19936;-61
2021/12/24 07:25:50;;;;;;;;;;;;;;;10.99;76.96;98353.91;5051476;28;19921;-61
2021/12/24 07:28:16;;;;;;;;;;;;;;;11.01;76.99;98343.25;5050028;28;20373;-62
2021/12/24 07:30:43;;;;;;;;;;;;;;;10.98;76.95;98354.88;5051244;28;19947;-61
2021/12/24 07:33:14;;;;;;;;;;;;;;;10.99;76.94;98350.44;5051471;28;19971;-61
2021/12/24 07:35:44;;;;;;;;;;;;;;;10.98;76.86;98346.97;5050356;28;19921;-61
2021/12/24 07:38:13;;;;;;;;;;;;;;;10.98;76.79;98349.59;5051275;28;19921;-61
2021/12/24 07:40:41;;;;;;;;;;;;;;;10.99;76.80;98350.44;5049675;28;20003;-60
2021/12/24 07:43:07;;;;;;;;;;;;;;;10.97;76.74;98353.19;5051065;28;19925;-60
2021/12/24 07:45:34;;;;;;;;;;;;;;;10.96;76.71;98354.16;5051119;28;19925;-61
2021/12/24 07:48:15;;;;;;;;;;;;;;;10.95;76.65;98366.47;5050982;28;19920;-61
2021/12/24 07:53:13;;;;;;;;;;;;;;;10.93;76.83;98359.69;5050828;28;19928;-60
2021/12/24 07:55:40;;;;;;;;;;;;;;;10.92;76.39;98368.53;5050902;28;19936;-60
2021/12/24 07:58:08;;;;;;;;;;;;;;;10.91;76.46;98354.53;5050987;28;19924;-62
2021/12/24 08:00:35;;;;;;;;;;;;;;;10.91;76.58;98359.78;5050542;28;20335;-60
2021/12/24 08:03:02;;;;;;;;;;;;;;;10.91;76.70;98362.44;5050517;28;19921;-61
2021/12/24 08:05:30;;;;;;;;;;;;;;;10.90;76.52;98373.06;5050658;28;19924;-61
2021/12/24 08:07:57;;;;;;;;;;;;;;;10.90;76.62;98367.81;5050646;28;20358;-63
2021/12/24 08:10:24;;;;;;;;;;;;;;;10.91;76.54;98374.75;5050260;28;20300;-60
2021/12/24 08:12:51;;;;;;;;;;;;;;;10.91;76.65;98366.84;5049101;28;20369;-61
2021/12/24 08:15:18;;;;;;;;;;;;;;;10.90;76.41;98375.72;5049570;28;19954;-60
2021/12/24 08:17:46;;;;;;;;;;;;;;;10.88;76.37;98373.19;5050516;28;19920;-62
2021/12/24 08:20:13;;;;;;;;;;;;;;;10.89;76.58;98374.03;5050525;28;19921;-60
2021/12/24 08:22:40;;;;;;;;;;;;;;;10.90;76.51;98378.34;5050662;28;19925;-60
2021/12/24 08:25:08;;;;;;;;;;;;;;;10.89;76.58;98374.91;5049254;28;19928;-61
2021/12/24 08:27:35;;;;;;;;;;;;;;;10.90;76.48;98379.19;5050422;28;19928;-62
2021/12/24 08:30:02;;;;;;;;;;;;;;;10.89;76.49;98374.03;5050018;28;20388;-60
2021/12/24 08:32:28;;;;;;;;;;;;;;;10.89;76.44;98377.53;5050686;28;20335;-60
2021/12/24 08:34:55;;;;;;;;;;;;;;;10.87;76.22;98363.63;5050615;28;19924;-60
2021/12/24 08:37:23;;;;;;;;;;;;;;;10.88;76.34;98373.19;5050221;28;19925;-61
2021/12/24 08:39:50;;;;;;;;;;;;;;;10.86;76.54;98377.75;5050241;28;19935;-59
2021/12/24 08:42:17;;;;;;;;;;;;;;;10.87;76.62;98374.16;5050381;28;19921;-59
2021/12/24 08:44:43;;;;;;;;;;;;;;;10.86;76.32;98376.91;5050485;28;19982;-61
2021/12/24 08:47:10;;;;;;;;;;;;;;;10.86;76.35;98375.13;5053477;28;19921;-59
2021/12/24 08:49:36;;;;;;;;;;;;;;;10.85;76.53;98377.88;5053947;28;19986;-59
2021/12/24 08:52:04;;;;;;;;;;;;;;;10.85;76.43;98376.09;5054205;28;19932;-60
2021/12/24 08:54:30;;;;;;;;;;;;;;;10.84;76.43;98374.41;5054063;28;19920;-60
2021/12/24 08:56:57;;;;;;;;;;;;;;;10.85;76.70;98377.88;5052736;28;19925;-59
2021/12/24 08:59:24;;;;;;;;;;;;;;;10.82;76.51;98377.19;5054049;28;20372;-59
2021/12/24 09:01:51;;;;;;;;;;;;;;;10.82;76.26;98368.44;5054529;28;20332;-58
2021/12/24 09:04:18;;;;;;;;;;;;;;;10.82;76.40;98387.72;5053922;28;19921;-62
2021/12/24 09:06:45;;;;;;;;;;;;;;;10.81;76.50;98386.00;5053779;28;19921;-59
2021/12/24 09:09:11;;;;;;;;;;;;;;;10.81;76.24;98388.66;5053782;28;19974;-59
2021/12/24 09:11:39;;;;;;;;;;;;;;;10.80;76.49;98383.50;5053815;28;19925;-62
2021/12/24 09:14:05;;;;;;;;;;;;;;;10.79;76.30;98384.47;5054007;28;19921;-59
2021/12/24 09:16:33;;;;;;;;;;;;;;;10.78;76.41;98370.50;5053655;28;19951;-61
2021/12/24 09:19:05;;;;;;;;;;;;;;;10.76;76.17;98388.19;5052860;28;19955;-59
2021/12/24 09:21:33;;;;;;;;;;;;;;;10.76;76.30;98401.34;5053649;28;20373;-59
2021/12/24 09:24:00;;;;;;;;;;;;;;;10.75;76.35;98386.53;5052428;28;20339;-60
2021/12/24 09:26:29;;;;;;;;;;;;;;;10.75;76.32;98377.78;5052050;28;19921;-58
2021/12/24 09:28:56;;;;;;;;;;;;;;;10.74;76.20;98378.75;5053557;28;19947;-59
2021/12/24 09:31:23;;;;;;;;;;;;;;;10.73;76.22;98377.06;5052037;28;20026;-61
2021/12/24 09:33:50;;;;;;;;;;;;;;;10.73;76.45;98377.91;5053243;28;20545;-60
2021/12/24 09:36:24;;;;;;;;;;;;;;;10.73;76.49;98380.53;5052095;28;19971;-61
2021/12/24 09:38:52;;;;;;;;;;;;;;;10.72;76.33;98378.88;5051819;28;19929;-59
2021/12/24 09:41:20;;;;;;;;;;;;;;;10.73;76.59;98393.69;5053197;28;19928;-60
2021/12/24 09:43:47;;;;;;;;;;;;;;;10.73;76.47;98377.91;5053634;28;19971;-61
2021/12/24 09:46:14;;;;;;;;;;;;;;;10.74;76.46;98378.75;5053027;28;19924;-60
2021/12/24 09:48:40;;;;;;;;;;;;;;;10.73;76.50;98388.44;5053180;28;20012;-59
2021/12/24 09:51:07;;;;;;;;;;;;;;;10.74;76.58;98379.59;5053059;28;19920;-61
2021/12/24 09:53:36;;;;;;;;;;;;;;;10.74;76.26;98374.31;5053276;28;19975;-59
2021/12/24 09:56:03;;;;;;;;;;;;;;;10.74;76.46;98374.31;5052870;28;19921;-58
2021/12/24 09:58:30;;;;;;;;;;;;;;;10.76;76.43;98382.94;5051864;28;19936;-61
2021/12/24 10:00:57;;;;;;;;;;;;;;;10.75;76.35;98380.41;5052751;28;19931;-59
2021/12/24 10:03:28;;;;;;;;;;;;;;;10.77;76.39;98378.50;5052865;28;19956;-59
2021/12/24 10:05:55;;;;;;;;;;;;;;;10.77;76.36;98367.97;5052734;28;19967;-59
2021/12/24 10:08:23;;;;;;;;;;;;;;;10.78;76.43;98367.88;5052729;28;19920;-61
2021/12/24 10:10:52;;;;;;;;;;;;;;;10.80;76.49;98367.72;5052690;28;20070;-59
2021/12/24 10:13:28;;;;;;;;;;;;;;;10.80;76.47;98373.81;5052714;28;19924;-59
2021/12/24 10:16:05;;;;;;;;;;;;;;;10.80;76.20;98368.56;5052502;28;19967;-59
2021/12/24 10:18:40;;;;;;;;;;;;;;;10.80;76.34;98379.09;5052479;28;19921;-60
2021/12/24 10:21:09;;;;;;;;;;;;;;;10.80;76.31;98384.34;5052127;28;19924;-60
2021/12/24 10:23:38;;;;;;;;;;;;;;;10.81;76.21;98375.50;5052623;28;20392;-61
2021/12/24 10:26:14;;;;;;;;;;;;;;;10.81;76.03;98383.38;5052346;28;19975;-59
2021/12/24 10:28:49;;;;;;;;;;;;;;;10.82;76.27;98381.59;5052311;28;19921;-60
2021/12/24 10:31:20;;;;;;;;;;;;;;;10.81;76.38;98375.50;5051889;28;20419;-61
2021/12/24 10:34:03;;;;;;;;;;;;;;;10.82;76.37;98371.91;5050973;28;19925;-59
2021/12/24 10:36:29;;;;;;;;;;;;;;;10.82;76.35;98366.66;5052208;28;20351;-59
2021/12/24 10:38:56;;;;;;;;;;;;;;;10.84;76.41;98357.78;5052223;28;20490;-62
2021/12/24 10:41:27;;;;;;;;;;;;;;;10.82;76.27;98358.75;5050882;28;19967;-60
2021/12/24 10:43:54;;;;;;;;;;;;;;;10.84;76.33;98357.78;5052074;28;19921;-58
2021/12/24 10:46:24;;;;;;;;;;;;;;;10.85;76.27;98362.09;5052253;28;19924;-60
2021/12/24 10:49:02;;;;;;;;;;;;;;;10.85;76.35;98356.81;5050896;28;20392;-59
2021/12/24 10:54:17;;;;;;;;;;;;;;;10.85;76.27;98359.47;5051978;28;20366;-61
2021/12/24 10:56:44;;;;;;;;;;;;;;;10.86;76.45;98361.97;5052121;28;19943;-59
2021/12/24 10:59:12;;;;;;;;;;;;;;;10.86;76.24;98366.38;5051886;28;19925;-63
2021/12/24 11:01:38;;;;;;;;;;;;;;;10.87;76.47;98355.72;5051842;28;20343;-61
2021/12/24 11:04:05;;;;;;;;;;;;;;;10.86;76.29;98355.84;5051780;28;19920;-59
2021/12/24 11:06:32;;;;;;;;;;;;;;;10.86;76.19;98369.88;5051451;28;20381;-59
2021/12/24 11:08:59;;;;;;;;;;;;;;;10.86;76.17;98358.50;5051772;28;20755;-58
2021/12/24 11:11:32;;;;;;;;;;;;;;;10.85;76.16;98357.66;5051558;28;19920;-60
2021/12/24 11:13:58;;;;;;;;;;;;;;;10.84;76.12;98368.31;5051834;28;19921;-58
2021/12/24 11:16:25;;;;;;;;;;;;;;;10.85;76.13;98367.34;5051612;28;19924;-61
2021/12/24 11:18:56;;;;;;;;;;;;;;;10.84;76.16;98368.31;5051505;28;19924;-58
2021/12/24 11:21:24;;;;;;;;;;;;;;;10.85;76.34;98376.09;5050197;28;19987;-59
2021/12/24 11:23:51;;;;;;;;;;;;;;;10.85;76.37;98377.88;5050256;28;19929;-58
2021/12/24 11:26:20;;;;;;;;;;;;;;;10.84;76.26;98366.50;5051250;28;19920;-59
2021/12/24 11:28:47;;;;;;;;;;;;;;;10.82;76.01;98365.81;5051416;28;19983;-59
2021/12/24 11:31:18;;;;;;;;;;;;;;;10.81;76.18;98386.00;5051022;28;20418;-59
2021/12/24 11:33:45;;;;;;;;;;;;;;;10.80;76.04;98373.81;5051621;28;19921;-59
2021/12/24 11:36:13;;;;;;;;;;;;;;;10.79;76.17;98377.41;5050068;28;19925;-60
2021/12/24 11:38:41;;;;;;;;;;;;;;;10.78;76.19;98375.75;5051328;28;19928;-59
2021/12/24 11:41:11;;;;;;;;;;;;;;;10.78;76.36;98370.50;5051026;28;19925;-59
2021/12/24 11:43:39;;;;;;;;;;;;;;;10.78;76.23;98367.88;5051220;28;19970;-60
2021/12/24 11:46:08;;;;;;;;;;;;;;;10.79;76.51;98372.16;5050846;28;19928;-59
2021/12/24 11:48:35;;;;;;;;;;;;;;;10.81;76.45;98385.19;5051056;28;20293;-58
2021/12/24 11:51:05;;;;;;;;;;;;;;;10.81;76.28;98366.78;5050828;28;19927;-60
2021/12/24 11:53:33;;;;;;;;;;;;;;;10.80;76.37;98379.09;5049842;28;20343;-59
2021/12/24 11:56:02;;;;;;;;;;;;;;;10.81;76.29;98379.94;5050752;28;19921;-59
2021/12/24 11:58:28;;;;;;;;;;;;;;;10.81;76.22;98370.22;5049961;28;19970;-60
2021/12/24 12:00:55;;;;;;;;;;;;;;;10.80;76.16;98371.19;5050766;28;19928;-58
2021/12/24 12:03:33;;;;;;;;;;;;;;;10.80;76.17;98367.72;5050883;28;19924;-60
2021/12/24 12:05:59;;;;;;;;;;;;;;;10.79;76.08;98369.53;5049521;28;19925;-58
2021/12/24 12:08:26;;;;;;;;;;;;;;;10.78;76.27;98359.13;5050847;28;19940;-62
2021/12/24 12:10:59;;;;;;;;;;;;;;;10.77;76.11;98362.72;5050604;28;20340;-58
2021/12/24 12:13:38;;;;;;;;;;;;;;;10.76;76.30;98367.13;5050637;28;20339;-58
2021/12/24 12:16:08;;;;;;;;;;;;;;;10.74;76.11;98362.94;5050728;28;19924;-60
2021/12/24 12:18:44;;;;;;;;;;;;;;;10.72;76.29;98365.69;5050362;28;19924;-60
2021/12/24 12:21:15;;;;;;;;;;;;;;;10.72;76.09;98357.00;5053901;28;19925;-61
2021/12/24 12:24:57;;;;;;;;;;;;;;;10.70;76.14;98367.63;5056271;28;19921;-59
2021/12/24 12:26:36;;;;;;;;;;;;;;;10.71;76.27;98365.81;5057151;28;20364;-58
2021/12/24 12:29:20;;;;;;;;;;;;;;;10.71;76.27;98373.72;5057256;28;19927;-61
2021/12/24 12:31:49;;;;;;;;;;;;;;;10.70;76.44;98370.28;5057558;28;20365;-58
2021/12/24 12:34:35;;;;;;;;;;;;;;;10.70;76.41;98362.38;5057776;28;19928;-60
2021/12/24 12:37:10;;;;;;;;;;;;;;;10.70;76.36;98362.38;5056905;28;19928;-59
2021/12/24 12:39:37;;;;;;;;;;;;;;;10.70;76.40;98357.09;5057069;28;19967;-60
2021/12/24 12:42:03;;;;;;;;;;;;;;;10.69;76.36;98364.16;5057142;28;19928;-60
2021/12/24 12:44:32;;;;;;;;;;;;;;;10.69;76.46;98361.53;5057319;28;19974;-58
2021/12/24 12:47:22;;;;;;;;;;;;;;;10.69;76.36;98351.00;5057223;28;20518;-60
2021/12/24 12:49:51;;;;;;;;;;;;;;;10.71;76.28;98357.94;5055533;28;19921;-59
2021/12/24 12:52:30;;;;;;;;;;;;;;;10.69;75.95;98361.53;5056904;28;19920;-59
2021/12/24 12:54:56;;;;;;;;;;;;;;;10.70;76.35;98349.22;5056090;28;19928;-59
2021/12/24 12:57:27;;;;;;;;;;;;;;;10.69;76.09;98365.94;5056894;28;19924;-61
2021/12/24 13:00:18;;;;;;;;;;;;;;;10.69;76.09;98365.94;5056924;28;19921;-59
2021/12/24 13:03:06;;;;;;;;;;;;;;;10.70;76.34;98362.38;5056978;28;20368;-59
2021/12/24 13:05:43;;;;;;;;;;;;;;;10.68;76.29;98344.06;5057006;28;19928;-60
2021/12/24 13:08:17;;;;;;;;;;;;;;;10.70;76.21;98346.59;5057110;28;19920;-59
2021/12/24 13:10:57;;;;;;;;;;;;;;;10.68;76.40;98345.84;5056856;28;19921;-59
2021/12/24 13:13:24;;;;;;;;;;;;;;;10.68;76.61;98348.50;5056917;28;20337;-60
2021/12/24 13:15:51;;;;;;;;;;;;;;;10.68;76.18;98345.84;5056823;28;19975;-60
2021/12/24 13:18:30;;;;;;;;;;;;;;;10.69;76.38;98345.72;5055978;28;19928;-58
2021/12/24 13:23:30;;;;;;;;;;;;;;;10.69;76.50;98348.38;5056837;28;19966;-60
2021/12/24 13:25:57;;;;;;;;;;;;;;;10.70;76.43;98354.47;5056568;28;19978;-59
2021/12/24 13:28:23;;;;;;;;;;;;;;;10.71;76.41;98358.78;5056986;28;19990;-59
2021/12/24 13:30:49;;;;;;;;;;;;;;;10.71;76.47;98358.78;5056683;28;19921;-60
2021/12/24 13:33:18;;;;;;;;;;;;;;;10.72;76.56;98364.88;5054123;28;19977;-59
2021/12/24 13:35:48;;;;;;;;;;;;;;;10.72;76.52;98360.44;5053454;28;20372;-59
2021/12/24 13:38:14;;;;;;;;;;;;;;;10.71;76.42;98369.31;5053410;28;19932;-59
2021/12/24 13:40:41;;;;;;;;;;;;;;;10.72;76.46;98354.34;5053600;28;19928;-58
2021/12/24 13:43:12;;;;;;;;;;;;;;;10.72;76.45;98370.97;5053469;28;19924;-61
2021/12/24 13:45:39;;;;;;;;;;;;;;;10.74;76.46;98394.53;5052297;28;20270;-60
2021/12/24 13:48:10;;;;;;;;;;;;;;;10.73;76.41;98409.47;5053373;28;19954;-60
2021/12/24 13:56:44;;;;;;;;;;;;;;;10.49;74.66;98446.47;5053190;28;19924;-60
2021/12/24 13:59:12;;;;;;;;;;;;;;;10.34;74.18;98446.66;5052832;28;19951;-59
2021/12/24 14:01:40;;;;;;;;;;;;;;;10.22;73.63;98458.13;5053021;28;20403;-59
2021/12/24 14:04:08;;;;;;;;;;;;;;;10.08;73.71;98456.53;5051817;28;19983;-59
2021/12/24 14:06:35;;;;;;;;;;;;;;;9.95;73.34;98444.38;5053146;28;19937;-58
2021/12/24 14:09:15;;;;;;;;;;;;;;;9.83;73.46;98459.25;5052878;28;19931;-59
2021/12/24 14:11:43;;;;;;;;;;;;;;;9.69;73.39;98452.41;5052742;28;19924;-58
2021/12/24 14:14:15;;;;;;;;;;;;;;;9.58;73.03;98463.72;5051772;28;19925;-59
2021/12/24 14:19:16;;;;;;;;;;;;;;;9.37;73.44;98469.59;5052657;28;19921;-59
2021/12/24 14:21:47;;;;;;;;;;;;;;;9.28;73.27;98456.28;5052719;28;20627;-59
2021/12/24 14:24:16;;;;;;;;;;;;;;;9.20;73.34;98472.59;5051374;28;20023;-59
2021/12/24 14:26:44;;;;;;;;;;;;;;;9.10;73.57;98475.03;5052537;28;19932;-59
2021/12/24 14:29:10;;;;;;;;;;;;;;;9.02;73.54;98480.84;5052551;28;19939;-62
2021/12/24 14:31:47;;;;;;;;;;;;;;;8.96;73.45;98481.28;5052512;28;20365;-59
2021/12/24 14:34:26;;;;;;;;;;;;;;;8.91;73.90;98492.09;5052355;28;19921;-58
2021/12/24 14:37:00;;;;;;;;;;;;;;;8.84;73.84;98496.94;5052762;28;20100;-59
2021/12/24 14:39:34;;;;;;;;;;;;;;;8.79;74.10;98496.41;5051214;28;19927;-59
2021/12/24 14:42:09;;;;;;;;;;;;;;;8.75;74.14;98505.47;5052433;28;19990;-59
2021/12/24 14:44:35;;;;;;;;;;;;;;;8.71;74.30;98510.06;5051686;28;20439;-61
2021/12/24 14:47:03;;;;;;;;;;;;;;;8.70;74.50;98513.66;5051919;28;19925;-58
2021/12/24 14:49:33;;;;;;;;;;;;;;;8.67;74.60;98513.84;5052120;28;19974;-59
2021/12/24 14:52:18;;;;;;;;;;;;;;;8.66;74.63;98520.06;5052284;28;19920;-60
2021/12/24 14:55:03;;;;;;;;;;;;;;;8.66;74.73;98521.81;5052348;28;20007;-59